sensor_id;sensor_type;location;lat;lon;timestamp;P1;durP1;ratioP1;P2;durP2;ratioP2
23718;SDS011;43322;52.230;5.702;2023-01-20T00:00:04;17.92;;;11.15;;
23718;SDS011;43322;52.230;5.702;2023-01-20T00:02:34;14.20;;;11.75;;
23718;SDS011;43322;52.230;5.702;2023-01-20T00:05:01;13.25;;;10.63;;
23718;SDS011;43322;52.230;5.702;2023-01-20T00:07:28;13.07;;;10.80;;
23718;SDS011;43322;52.230;5.702;2023-01-20T00:09:55;12.23;;;10.30;;
23718;SDS011;43322;52.230;5.702;2023-01-20T00:12:22;14.02;;;11.35;;
23718;SDS011;43322;52.230;5.702;2023-01-20T00:14:49;12.82;;;10.32;;
23718;SDS011;43322;52.230;5.702;2023-01-20T00:17:16;17.90;;;10.82;;
23718;SDS011;43322;52.230;5.702;2023-01-20T00:19:45;14.18;;;11.25;;
23718;SDS011;43322;52.230;5.702;2023-01-20T00:22:12;13.85;;;10.40;;
23718;SDS011;43322;52.230;5.702;2023-01-20T00:24:39;14.32;;;10.55;;
23718;SDS011;43322;52.230;5.702;2023-01-20T00:27:06;12.10;;;9.65;;
23718;SDS011;43322;52.230;5.702;2023-01-20T00:29:33;15.65;;;10.80;;
23718;SDS011;43322;52.230;5.702;2023-01-20T00:32:00;13.73;;;10.65;;
23718;SDS011;43322;52.230;5.702;2023-01-20T00:34:27;12.70;;;10.98;;
23718;SDS011;43322;52.230;5.702;2023-01-20T00:36:56;12.02;;;9.98;;
23718;SDS011;43322;52.230;5.702;2023-01-20T00:39:23;12.82;;;9.98;;
23718;SDS011;43322;52.230;5.702;2023-01-20T00:41:50;12.35;;;9.95;;
23718;SDS011;43322;52.230;5.702;2023-01-20T00:44:17;15.80;;;11.00;;
23718;SDS011;43322;52.230;5.702;2023-01-20T00:46:44;11.20;;;9.55;;
23718;SDS011;43322;52.230;5.702;2023-01-20T00:49:12;11.93;;;10.48;;
23718;SDS011;43322;52.230;5.702;2023-01-20T00:51:39;13.48;;;10.45;;
23718;SDS011;43322;52.230;5.702;2023-01-20T00:54:07;10.93;;;9.63;;
23718;SDS011;43322;52.230;5.702;2023-01-20T00:56:34;10.30;;;9.32;;
23718;SDS011;43322;52.230;5.702;2023-01-20T00:59:02;12.50;;;10.13;;
23718;SDS011;43322;52.230;5.702;2023-01-20T01:01:29;12.27;;;9.85;;
23718;SDS011;43322;52.230;5.702;2023-01-20T01:03:56;11.52;;;9.90;;
23718;SDS011;43322;52.230;5.702;2023-01-20T01:06:23;11.73;;;9.55;;
23718;SDS011;43322;52.230;5.702;2023-01-20T01:08:50;13.50;;;10.73;;
23718;SDS011;43322;52.230;5.702;2023-01-20T01:11:19;15.10;;;11.13;;
23718;SDS011;43322;52.230;5.702;2023-01-20T01:13:46;17.73;;;11.82;;
23718;SDS011;43322;52.230;5.702;2023-01-20T01:16:14;18.73;;;12.23;;
23718;SDS011;43322;52.230;5.702;2023-01-20T01:18:41;21.08;;;12.32;;
23718;SDS011;43322;52.230;5.702;2023-01-20T01:21:09;16.67;;;11.88;;
23718;SDS011;43322;52.230;5.702;2023-01-20T01:23:38;18.98;;;12.75;;
23718;SDS011;43322;52.230;5.702;2023-01-20T01:26:05;21.75;;;13.43;;
23718;SDS011;43322;52.230;5.702;2023-01-20T01:28:33;19.15;;;13.02;;
23718;SDS011;43322;52.230;5.702;2023-01-20T01:31:00;17.58;;;12.15;;
23718;SDS011;43322;52.230;5.702;2023-01-20T01:33:27;16.15;;;12.63;;
23718;SDS011;43322;52.230;5.702;2023-01-20T01:35:55;18.42;;;13.88;;
23718;SDS011;43322;52.230;5.702;2023-01-20T01:38:22;18.10;;;13.32;;
23718;SDS011;43322;52.230;5.702;2023-01-20T01:40:49;18.95;;;12.85;;
23718;SDS011;43322;52.230;5.702;2023-01-20T01:43:20;18.17;;;13.25;;
23718;SDS011;43322;52.230;5.702;2023-01-20T01:45:49;20.17;;;13.55;;
23718;SDS011;43322;52.230;5.702;2023-01-20T01:48:16;19.80;;;13.52;;
23718;SDS011;43322;52.230;5.702;2023-01-20T01:50:47;22.88;;;14.32;;
23718;SDS011;43322;52.230;5.702;2023-01-20T01:53:15;24.35;;;14.63;;
23718;SDS011;43322;52.230;5.702;2023-01-20T01:55:43;22.15;;;14.60;;
23718;SDS011;43322;52.230;5.702;2023-01-20T01:58:16;22.92;;;15.20;;
23718;SDS011;43322;52.230;5.702;2023-01-20T02:00:43;20.17;;;14.25;;
23718;SDS011;43322;52.230;5.702;2023-01-20T02:03:12;24.45;;;15.57;;
23718;SDS011;43322;52.230;5.702;2023-01-20T02:05:39;24.50;;;16.20;;
23718;SDS011;43322;52.230;5.702;2023-01-20T02:08:08;26.27;;;17.02;;
23718;SDS011;43322;52.230;5.702;2023-01-20T02:10:35;26.52;;;15.90;;
23718;SDS011;43322;52.230;5.702;2023-01-20T02:13:02;26.42;;;15.63;;
23718;SDS011;43322;52.230;5.702;2023-01-20T02:15:31;31.25;;;17.70;;
23718;SDS011;43322;52.230;5.702;2023-01-20T02:18:05;23.38;;;15.38;;
23718;SDS011;43322;52.230;5.702;2023-01-20T02:20:56;25.50;;;16.38;;
23718;SDS011;43322;52.230;5.702;2023-01-20T02:26:51;27.90;;;17.65;;
23718;SDS011;43322;52.230;5.702;2023-01-20T02:29:27;26.90;;;17.80;;
23718;SDS011;43322;52.230;5.702;2023-01-20T02:32:08;33.28;;;18.73;;
23718;SDS011;43322;52.230;5.702;2023-01-20T02:34:45;34.30;;;19.60;;
23718;SDS011;43322;52.230;5.702;2023-01-20T02:37:18;38.22;;;20.02;;
23718;SDS011;43322;52.230;5.702;2023-01-20T02:39:53;34.45;;;19.85;;
23718;SDS011;43322;52.230;5.702;2023-01-20T02:42:31;34.20;;;19.15;;
23718;SDS011;43322;52.230;5.702;2023-01-20T02:45:05;33.00;;;19.60;;
23718;SDS011;43322;52.230;5.702;2023-01-20T02:47:37;34.17;;;20.05;;
23718;SDS011;43322;52.230;5.702;2023-01-20T02:50:12;34.78;;;21.48;;
23718;SDS011;43322;52.230;5.702;2023-01-20T02:52:42;37.13;;;22.02;;
23718;SDS011;43322;52.230;5.702;2023-01-20T02:55:14;35.63;;;21.25;;
23718;SDS011;43322;52.230;5.702;2023-01-20T02:57:46;35.88;;;20.70;;
23718;SDS011;43322;52.230;5.702;2023-01-20T03:00:18;34.83;;;21.40;;
23718;SDS011;43322;52.230;5.702;2023-01-20T03:02:51;36.70;;;22.20;;
23718;SDS011;43322;52.230;5.702;2023-01-20T03:05:19;43.20;;;22.23;;
23718;SDS011;43322;52.230;5.702;2023-01-20T03:07:47;34.78;;;21.55;;
23718;SDS011;43322;52.230;5.702;2023-01-20T03:10:16;37.08;;;21.52;;
23718;SDS011;43322;52.230;5.702;2023-01-20T03:12:47;43.58;;;22.55;;
23718;SDS011;43322;52.230;5.702;2023-01-20T03:15:21;40.38;;;23.23;;
23718;SDS011;43322;52.230;5.702;2023-01-20T03:17:55;37.42;;;22.85;;
23718;SDS011;43322;52.230;5.702;2023-01-20T03:20:23;41.05;;;22.77;;
23718;SDS011;43322;52.230;5.702;2023-01-20T03:22:50;37.75;;;21.10;;
23718;SDS011;43322;52.230;5.702;2023-01-20T03:25:16;40.78;;;22.73;;
23718;SDS011;43322;52.230;5.702;2023-01-20T03:27:47;38.05;;;21.55;;
23718;SDS011;43322;52.230;5.702;2023-01-20T03:30:14;41.53;;;22.98;;
23718;SDS011;43322;52.230;5.702;2023-01-20T03:32:42;42.78;;;23.40;;
23718;SDS011;43322;52.230;5.702;2023-01-20T03:35:17;43.10;;;23.33;;
23718;SDS011;43322;52.230;5.702;2023-01-20T03:37:45;42.28;;;23.65;;
23718;SDS011;43322;52.230;5.702;2023-01-20T03:40:12;43.30;;;24.02;;
23718;SDS011;43322;52.230;5.702;2023-01-20T03:42:42;41.97;;;23.45;;
23718;SDS011;43322;52.230;5.702;2023-01-20T03:45:19;44.45;;;24.58;;
23718;SDS011;43322;52.230;5.702;2023-01-20T03:47:51;45.58;;;24.48;;
23718;SDS011;43322;52.230;5.702;2023-01-20T03:53:10;45.00;;;24.80;;
23718;SDS011;43322;52.230;5.702;2023-01-20T03:55:48;47.38;;;24.55;;
23718;SDS011;43322;52.230;5.702;2023-01-20T03:58:19;44.97;;;24.55;;
23718;SDS011;43322;52.230;5.702;2023-01-20T04:00:49;50.33;;;25.67;;
23718;SDS011;43322;52.230;5.702;2023-01-20T04:03:19;54.50;;;26.98;;
23718;SDS011;43322;52.230;5.702;2023-01-20T04:05:50;60.92;;;28.13;;
23718;SDS011;43322;52.230;5.702;2023-01-20T04:08:18;60.67;;;28.83;;
23718;SDS011;43322;52.230;5.702;2023-01-20T04:10:49;51.72;;;26.02;;
23718;SDS011;43322;52.230;5.702;2023-01-20T04:13:18;57.20;;;26.90;;
23718;SDS011;43322;52.230;5.702;2023-01-20T04:15:46;62.50;;;27.63;;
23718;SDS011;43322;52.230;5.702;2023-01-20T04:18:13;56.47;;;26.70;;
23718;SDS011;43322;52.230;5.702;2023-01-20T04:20:42;55.15;;;27.38;;
23718;SDS011;43322;52.230;5.702;2023-01-20T04:23:15;57.03;;;27.67;;
23718;SDS011;43322;52.230;5.702;2023-01-20T04:25:46;59.60;;;27.77;;
23718;SDS011;43322;52.230;5.702;2023-01-20T04:28:13;57.90;;;28.60;;
23718;SDS011;43322;52.230;5.702;2023-01-20T04:30:40;58.63;;;27.63;;
23718;SDS011;43322;52.230;5.702;2023-01-20T04:33:06;65.47;;;29.05;;
23718;SDS011;43322;52.230;5.702;2023-01-20T04:35:35;61.85;;;29.27;;
23718;SDS011;43322;52.230;5.702;2023-01-20T04:38:02;59.45;;;28.33;;
23718;SDS011;43322;52.230;5.702;2023-01-20T04:40:30;67.30;;;28.75;;
23718;SDS011;43322;52.230;5.702;2023-01-20T04:42:57;59.63;;;28.88;;
23718;SDS011;43322;52.230;5.702;2023-01-20T04:45:23;64.60;;;28.40;;
23718;SDS011;43322;52.230;5.702;2023-01-20T04:47:50;68.25;;;28.77;;
23718;SDS011;43322;52.230;5.702;2023-01-20T04:50:17;67.07;;;28.40;;
23718;SDS011;43322;52.230;5.702;2023-01-20T04:52:44;66.15;;;29.20;;
23718;SDS011;43322;52.230;5.702;2023-01-20T04:55:11;66.25;;;29.80;;
23718;SDS011;43322;52.230;5.702;2023-01-20T04:57:40;66.57;;;30.02;;
23718;SDS011;43322;52.230;5.702;2023-01-20T05:00:07;70.22;;;29.08;;
23718;SDS011;43322;52.230;5.702;2023-01-20T05:02:36;65.90;;;29.17;;
23718;SDS011;43322;52.230;5.702;2023-01-20T05:05:02;69.25;;;29.15;;
23718;SDS011;43322;52.230;5.702;2023-01-20T05:07:30;65.80;;;29.77;;
23718;SDS011;43322;52.230;5.702;2023-01-20T05:09:56;65.90;;;29.38;;
23718;SDS011;43322;52.230;5.702;2023-01-20T05:12:23;75.75;;;29.67;;
23718;SDS011;43322;52.230;5.702;2023-01-20T05:14:52;66.65;;;29.15;;
23718;SDS011;43322;52.230;5.702;2023-01-20T05:17:18;72.88;;;29.05;;
23718;SDS011;43322;52.230;5.702;2023-01-20T05:19:45;74.72;;;29.00;;
23718;SDS011;43322;52.230;5.702;2023-01-20T05:22:12;71.28;;;30.40;;
23718;SDS011;43322;52.230;5.702;2023-01-20T05:24:39;75.97;;;29.48;;
23718;SDS011;43322;52.230;5.702;2023-01-20T05:27:06;71.53;;;30.13;;
23718;SDS011;43322;52.230;5.702;2023-01-20T05:29:33;75.95;;;29.58;;
23718;SDS011;43322;52.230;5.702;2023-01-20T05:32:01;77.18;;;30.00;;
23718;SDS011;43322;52.230;5.702;2023-01-20T05:34:28;76.13;;;30.50;;
23718;SDS011;43322;52.230;5.702;2023-01-20T05:36:55;64.63;;;28.95;;
23718;SDS011;43322;52.230;5.702;2023-01-20T05:39:21;72.07;;;29.92;;
23718;SDS011;43322;52.230;5.702;2023-01-20T05:41:48;71.18;;;30.50;;
23718;SDS011;43322;52.230;5.702;2023-01-20T05:44:15;70.03;;;29.85;;
23718;SDS011;43322;52.230;5.702;2023-01-20T05:46:42;74.25;;;30.40;;
23718;SDS011;43322;52.230;5.702;2023-01-20T05:49:10;69.35;;;29.00;;
23718;SDS011;43322;52.230;5.702;2023-01-20T05:51:37;71.25;;;30.30;;
23718;SDS011;43322;52.230;5.702;2023-01-20T05:54:04;74.25;;;29.48;;
23718;SDS011;43322;52.230;5.702;2023-01-20T05:56:31;69.03;;;29.02;;
23718;SDS011;43322;52.230;5.702;2023-01-20T05:58:58;67.57;;;27.52;;
23718;SDS011;43322;52.230;5.702;2023-01-20T06:01:25;71.40;;;28.10;;
23718;SDS011;43322;52.230;5.702;2023-01-20T06:03:52;75.25;;;28.30;;
23718;SDS011;43322;52.230;5.702;2023-01-20T06:06:22;71.07;;;28.15;;
23718;SDS011;43322;52.230;5.702;2023-01-20T06:08:50;70.72;;;28.40;;
23718;SDS011;43322;52.230;5.702;2023-01-20T06:11:18;66.55;;;27.23;;
23718;SDS011;43322;52.230;5.702;2023-01-20T06:13:47;66.55;;;26.40;;
23718;SDS011;43322;52.230;5.702;2023-01-20T06:16:15;61.55;;;27.10;;
23718;SDS011;43322;52.230;5.702;2023-01-20T06:18:42;60.15;;;25.35;;
23718;SDS011;43322;52.230;5.702;2023-01-20T06:21:09;65.70;;;27.30;;
23718;SDS011;43322;52.230;5.702;2023-01-20T06:23:37;70.72;;;27.23;;
23718;SDS011;43322;52.230;5.702;2023-01-20T06:26:04;67.85;;;27.63;;
23718;SDS011;43322;52.230;5.702;2023-01-20T06:28:32;69.75;;;27.75;;
23718;SDS011;43322;52.230;5.702;2023-01-20T06:31:00;68.95;;;27.38;;
23718;SDS011;43322;52.230;5.702;2023-01-20T06:33:28;70.95;;;27.02;;
23718;SDS011;43322;52.230;5.702;2023-01-20T06:35:56;72.90;;;28.95;;
23718;SDS011;43322;52.230;5.702;2023-01-20T06:38:23;78.72;;;29.35;;
23718;SDS011;43322;52.230;5.702;2023-01-20T06:40:57;73.57;;;27.70;;
23718;SDS011;43322;52.230;5.702;2023-01-20T06:43:24;70.07;;;27.70;;
23718;SDS011;43322;52.230;5.702;2023-01-20T06:45:56;68.82;;;28.08;;
23718;SDS011;43322;52.230;5.702;2023-01-20T06:48:24;68.68;;;27.67;;
23718;SDS011;43322;52.230;5.702;2023-01-20T06:50:51;72.03;;;27.35;;
23718;SDS011;43322;52.230;5.702;2023-01-20T06:53:18;64.75;;;26.27;;
23718;SDS011;43322;52.230;5.702;2023-01-20T06:55:52;72.30;;;28.33;;
23718;SDS011;43322;52.230;5.702;2023-01-20T06:58:21;77.63;;;29.67;;
23718;SDS011;43322;52.230;5.702;2023-01-20T07:00:48;69.22;;;26.92;;
23718;SDS011;43322;52.230;5.702;2023-01-20T07:03:15;73.18;;;29.23;;
23718;SDS011;43322;52.230;5.702;2023-01-20T07:05:42;74.80;;;28.83;;
23718;SDS011;43322;52.230;5.702;2023-01-20T07:08:09;78.60;;;30.33;;
23718;SDS011;43322;52.230;5.702;2023-01-20T07:10:36;75.07;;;29.60;;
23718;SDS011;43322;52.230;5.702;2023-01-20T07:13:03;79.25;;;29.88;;
23718;SDS011;43322;52.230;5.702;2023-01-20T07:15:31;86.72;;;31.33;;
23718;SDS011;43322;52.230;5.702;2023-01-20T07:17:58;76.90;;;30.83;;
23718;SDS011;43322;52.230;5.702;2023-01-20T07:20:25;78.82;;;30.80;;
23718;SDS011;43322;52.230;5.702;2023-01-20T07:22:51;79.10;;;29.70;;
23718;SDS011;43322;52.230;5.702;2023-01-20T07:25:18;77.45;;;30.80;;
23718;SDS011;43322;52.230;5.702;2023-01-20T07:27:45;78.20;;;30.33;;
23718;SDS011;43322;52.230;5.702;2023-01-20T07:30:12;79.43;;;31.42;;
23718;SDS011;43322;52.230;5.702;2023-01-20T07:32:40;82.95;;;30.77;;
23718;SDS011;43322;52.230;5.702;2023-01-20T07:35:07;81.85;;;31.73;;
23718;SDS011;43322;52.230;5.702;2023-01-20T07:37:34;75.28;;;31.48;;
23718;SDS011;43322;52.230;5.702;2023-01-20T07:40:01;77.95;;;30.05;;
23718;SDS011;43322;52.230;5.702;2023-01-20T07:42:28;83.28;;;31.85;;
23718;SDS011;43322;52.230;5.702;2023-01-20T07:44:55;73.07;;;29.92;;
23718;SDS011;43322;52.230;5.702;2023-01-20T07:47:22;80.82;;;31.75;;
23718;SDS011;43322;52.230;5.702;2023-01-20T07:49:53;75.15;;;30.98;;
23718;SDS011;43322;52.230;5.702;2023-01-20T07:52:20;79.95;;;31.90;;
23718;SDS011;43322;52.230;5.702;2023-01-20T07:54:47;79.78;;;31.75;;
23718;SDS011;43322;52.230;5.702;2023-01-20T07:57:14;75.82;;;30.70;;
23718;SDS011;43322;52.230;5.702;2023-01-20T07:59:40;71.40;;;28.90;;
23718;SDS011;43322;52.230;5.702;2023-01-20T08:02:09;72.40;;;29.08;;
23718;SDS011;43322;52.230;5.702;2023-01-20T08:04:36;79.15;;;29.92;;
23718;SDS011;43322;52.230;5.702;2023-01-20T08:07:06;69.85;;;29.88;;
23718;SDS011;43322;52.230;5.702;2023-01-20T08:09:33;69.72;;;29.80;;
23718;SDS011;43322;52.230;5.702;2023-01-20T08:12:00;74.85;;;29.73;;
23718;SDS011;43322;52.230;5.702;2023-01-20T08:14:27;68.68;;;28.38;;
23718;SDS011;43322;52.230;5.702;2023-01-20T08:16:54;72.85;;;29.23;;
23718;SDS011;43322;52.230;5.702;2023-01-20T08:19:20;67.63;;;28.20;;
23718;SDS011;43322;52.230;5.702;2023-01-20T08:21:49;66.60;;;27.60;;
23718;SDS011;43322;52.230;5.702;2023-01-20T08:24:17;64.50;;;27.98;;
23718;SDS011;43322;52.230;5.702;2023-01-20T08:26:44;71.43;;;28.08;;
23718;SDS011;43322;52.230;5.702;2023-01-20T08:29:11;59.80;;;27.27;;
23718;SDS011;43322;52.230;5.702;2023-01-20T08:31:38;64.65;;;28.52;;
23718;SDS011;43322;52.230;5.702;2023-01-20T08:34:05;66.10;;;27.55;;
23718;SDS011;43322;52.230;5.702;2023-01-20T08:36:32;67.00;;;27.70;;
23718;SDS011;43322;52.230;5.702;2023-01-20T08:39:02;63.10;;;29.05;;
23718;SDS011;43322;52.230;5.702;2023-01-20T08:41:34;64.10;;;28.80;;
23718;SDS011;43322;52.230;5.702;2023-01-20T08:44:03;66.10;;;28.27;;
23718;SDS011;43322;52.230;5.702;2023-01-20T08:46:32;67.13;;;27.58;;
23718;SDS011;43322;52.230;5.702;2023-01-20T08:48:59;67.13;;;28.75;;
23718;SDS011;43322;52.230;5.702;2023-01-20T08:51:27;64.10;;;27.50;;
23718;SDS011;43322;52.230;5.702;2023-01-20T08:53:55;61.80;;;26.77;;
23718;SDS011;43322;52.230;5.702;2023-01-20T08:56:22;61.78;;;26.92;;
23718;SDS011;43322;52.230;5.702;2023-01-20T08:58:50;64.97;;;27.83;;
23718;SDS011;43322;52.230;5.702;2023-01-20T09:01:19;66.07;;;26.95;;
23718;SDS011;43322;52.230;5.702;2023-01-20T09:03:47;69.45;;;26.90;;
23718;SDS011;43322;52.230;5.702;2023-01-20T09:06:14;58.20;;;25.85;;
23718;SDS011;43322;52.230;5.702;2023-01-20T09:08:42;60.17;;;26.52;;
23718;SDS011;43322;52.230;5.702;2023-01-20T09:11:10;63.50;;;27.23;;
23718;SDS011;43322;52.230;5.702;2023-01-20T09:13:38;55.30;;;25.58;;
23718;SDS011;43322;52.230;5.702;2023-01-20T09:16:07;57.22;;;24.05;;
23718;SDS011;43322;52.230;5.702;2023-01-20T09:18:35;63.00;;;26.55;;
23718;SDS011;43322;52.230;5.702;2023-01-20T09:21:03;54.63;;;25.45;;
23718;SDS011;43322;52.230;5.702;2023-01-20T09:23:30;55.00;;;24.63;;
23718;SDS011;43322;52.230;5.702;2023-01-20T09:25:58;57.28;;;25.65;;
23718;SDS011;43322;52.230;5.702;2023-01-20T09:28:25;60.90;;;24.55;;
23718;SDS011;43322;52.230;5.702;2023-01-20T09:30:56;51.67;;;24.70;;
23718;SDS011;43322;52.230;5.702;2023-01-20T09:33:24;55.83;;;24.98;;
23718;SDS011;43322;52.230;5.702;2023-01-20T09:35:52;59.80;;;24.80;;
23718;SDS011;43322;52.230;5.702;2023-01-20T09:38:19;58.22;;;24.92;;
23718;SDS011;43322;52.230;5.702;2023-01-20T09:41:04;56.00;;;24.55;;
23718;SDS011;43322;52.230;5.702;2023-01-20T09:44:00;53.97;;;24.60;;
23718;SDS011;43322;52.230;5.702;2023-01-20T09:46:39;57.97;;;25.75;;
23718;SDS011;43322;52.230;5.702;2023-01-20T09:49:38;60.28;;;25.52;;
23718;SDS011;43322;52.230;5.702;2023-01-20T09:52:31;51.83;;;23.88;;
23718;SDS011;43322;52.230;5.702;2023-01-20T09:55:20;54.42;;;25.00;;
23718;SDS011;43322;52.230;5.702;2023-01-20T09:57:53;60.63;;;24.90;;
23718;SDS011;43322;52.230;5.702;2023-01-20T10:00:27;56.05;;;25.65;;
23718;SDS011;43322;52.230;5.702;2023-01-20T10:02:58;54.50;;;24.45;;
23718;SDS011;43322;52.230;5.702;2023-01-20T10:05:31;51.45;;;25.67;;
23718;SDS011;43322;52.230;5.702;2023-01-20T10:08:04;58.78;;;27.55;;
23718;SDS011;43322;52.230;5.702;2023-01-20T10:10:38;54.95;;;25.83;;
23718;SDS011;43322;52.230;5.702;2023-01-20T10:13:11;59.75;;;26.20;;
23718;SDS011;43322;52.230;5.702;2023-01-20T10:15:43;59.20;;;26.02;;
23718;SDS011;43322;52.230;5.702;2023-01-20T10:18:13;59.47;;;25.27;;
23718;SDS011;43322;52.230;5.702;2023-01-20T10:20:47;62.65;;;27.45;;
23718;SDS011;43322;52.230;5.702;2023-01-20T10:23:20;64.32;;;26.88;;
23718;SDS011;43322;52.230;5.702;2023-01-20T10:25:54;58.53;;;26.20;;
23718;SDS011;43322;52.230;5.702;2023-01-20T10:28:30;60.88;;;27.65;;
23718;SDS011;43322;52.230;5.702;2023-01-20T10:31:01;57.90;;;26.80;;
23718;SDS011;43322;52.230;5.702;2023-01-20T10:33:30;56.67;;;26.40;;
23718;SDS011;43322;52.230;5.702;2023-01-20T10:36:02;57.55;;;26.48;;
23718;SDS011;43322;52.230;5.702;2023-01-20T10:38:31;53.05;;;26.50;;
23718;SDS011;43322;52.230;5.702;2023-01-20T10:41:06;55.47;;;26.17;;
23718;SDS011;43322;52.230;5.702;2023-01-20T10:43:40;55.55;;;25.58;;
23718;SDS011;43322;52.230;5.702;2023-01-20T10:46:11;57.08;;;26.42;;
23718;SDS011;43322;52.230;5.702;2023-01-20T10:51:44;58.17;;;24.63;;
23718;SDS011;43322;52.230;5.702;2023-01-20T10:54:21;54.90;;;25.33;;
23718;SDS011;43322;52.230;5.702;2023-01-20T10:56:55;59.70;;;28.30;;
23718;SDS011;43322;52.230;5.702;2023-01-20T10:59:26;65.53;;;27.77;;
23718;SDS011;43322;52.230;5.702;2023-01-20T11:01:58;54.20;;;25.63;;
23718;SDS011;43322;52.230;5.702;2023-01-20T11:04:29;50.22;;;24.65;;
23718;SDS011;43322;52.230;5.702;2023-01-20T11:06:59;59.17;;;26.92;;
23718;SDS011;43322;52.230;5.702;2023-01-20T11:09:28;50.65;;;23.92;;
23718;SDS011;43322;52.230;5.702;2023-01-20T11:12:01;52.40;;;24.90;;
23718;SDS011;43322;52.230;5.702;2023-01-20T11:14:31;49.50;;;25.20;;
23718;SDS011;43322;52.230;5.702;2023-01-20T11:17:00;49.10;;;24.58;;
23718;SDS011;43322;52.230;5.702;2023-01-20T11:19:43;47.42;;;23.33;;
23718;SDS011;43322;52.230;5.702;2023-01-20T11:22:12;54.03;;;23.73;;
23718;SDS011;43322;52.230;5.702;2023-01-20T11:24:45;47.72;;;23.75;;
23718;SDS011;43322;52.230;5.702;2023-01-20T11:27:13;47.60;;;23.80;;
23718;SDS011;43322;52.230;5.702;2023-01-20T11:29:42;43.17;;;22.40;;
23718;SDS011;43322;52.230;5.702;2023-01-20T11:32:22;51.85;;;24.30;;
23718;SDS011;43322;52.230;5.702;2023-01-20T11:34:50;46.28;;;22.58;;
23718;SDS011;43322;52.230;5.702;2023-01-20T11:37:21;43.90;;;22.42;;
23718;SDS011;43322;52.230;5.702;2023-01-20T11:40:00;44.97;;;22.73;;
23718;SDS011;43322;52.230;5.702;2023-01-20T11:42:30;47.35;;;23.80;;
23718;SDS011;43322;52.230;5.702;2023-01-20T11:45:12;46.88;;;23.20;;
23718;SDS011;43322;52.230;5.702;2023-01-20T11:47:58;43.25;;;22.77;;
23718;SDS011;43322;52.230;5.702;2023-01-20T11:50:31;45.47;;;22.17;;
23718;SDS011;43322;52.230;5.702;2023-01-20T11:53:12;45.65;;;23.27;;
23718;SDS011;43322;52.230;5.702;2023-01-20T11:55:44;41.13;;;22.25;;
23718;SDS011;43322;52.230;5.702;2023-01-20T11:58:15;40.58;;;21.67;;
23718;SDS011;43322;52.230;5.702;2023-01-20T12:00:44;40.80;;;21.40;;
23718;SDS011;43322;52.230;5.702;2023-01-20T12:03:21;41.65;;;21.63;;
23718;SDS011;43322;52.230;5.702;2023-01-20T12:06:13;38.10;;;20.23;;
23718;SDS011;43322;52.230;5.702;2023-01-20T12:08:47;39.63;;;21.23;;
23718;SDS011;43322;52.230;5.702;2023-01-20T12:11:16;41.38;;;20.48;;
23718;SDS011;43322;52.230;5.702;2023-01-20T12:14:00;34.08;;;19.23;;
23718;SDS011;43322;52.230;5.702;2023-01-20T12:16:47;35.70;;;18.85;;
23718;SDS011;43322;52.230;5.702;2023-01-20T12:19:19;36.58;;;19.70;;
23718;SDS011;43322;52.230;5.702;2023-01-20T12:21:55;31.75;;;18.40;;
23718;SDS011;43322;52.230;5.702;2023-01-20T12:24:29;31.77;;;18.52;;
23718;SDS011;43322;52.230;5.702;2023-01-20T12:27:19;29.42;;;17.83;;
23718;SDS011;43322;52.230;5.702;2023-01-20T12:29:50;32.90;;;17.67;;
23718;SDS011;43322;52.230;5.702;2023-01-20T12:32:21;32.90;;;18.33;;
23718;SDS011;43322;52.230;5.702;2023-01-20T12:34:47;31.27;;;18.33;;
23718;SDS011;43322;52.230;5.702;2023-01-20T12:37:15;39.92;;;19.33;;
23718;SDS011;43322;52.230;5.702;2023-01-20T12:39:55;32.17;;;19.02;;
23718;SDS011;43322;52.230;5.702;2023-01-20T12:48:24;35.65;;;19.45;;
23718;SDS011;43322;52.230;5.702;2023-01-20T12:51:03;32.83;;;18.85;;
23718;SDS011;43322;52.230;5.702;2023-01-20T12:53:53;38.58;;;20.02;;
23718;SDS011;43322;52.230;5.702;2023-01-20T12:56:36;30.92;;;19.27;;
23718;SDS011;43322;52.230;5.702;2023-01-20T12:59:14;35.13;;;19.83;;
23718;SDS011;43322;52.230;5.702;2023-01-20T13:01:54;29.83;;;17.48;;
23718;SDS011;43322;52.230;5.702;2023-01-20T13:07:34;33.13;;;18.15;;
23718;SDS011;43322;52.230;5.702;2023-01-20T13:10:37;36.22;;;20.55;;
23718;SDS011;43322;52.230;5.702;2023-01-20T13:13:16;35.40;;;19.55;;
23718;SDS011;43322;52.230;5.702;2023-01-20T13:15:53;31.55;;;18.73;;
23718;SDS011;43322;52.230;5.702;2023-01-20T13:18:27;32.22;;;18.92;;
23718;SDS011;43322;52.230;5.702;2023-01-20T13:21:00;33.05;;;18.80;;
23718;SDS011;43322;52.230;5.702;2023-01-20T13:23:28;32.88;;;18.88;;
23718;SDS011;43322;52.230;5.702;2023-01-20T13:25:58;30.20;;;18.33;;
23718;SDS011;43322;52.230;5.702;2023-01-20T13:28:28;31.83;;;18.60;;
23718;SDS011;43322;52.230;5.702;2023-01-20T13:30:56;29.85;;;17.85;;
23718;SDS011;43322;52.230;5.702;2023-01-20T13:33:31;32.58;;;18.42;;
23718;SDS011;43322;52.230;5.702;2023-01-20T13:36:00;28.42;;;16.98;;
23718;SDS011;43322;52.230;5.702;2023-01-20T13:38:39;32.70;;;17.42;;
23718;SDS011;43322;52.230;5.702;2023-01-20T13:41:07;27.13;;;17.05;;
23718;SDS011;43322;52.230;5.702;2023-01-20T13:43:44;29.73;;;18.08;;
23718;SDS011;43322;52.230;5.702;2023-01-20T13:49:20;29.48;;;17.02;;
23718;SDS011;43322;52.230;5.702;2023-01-20T13:52:02;26.65;;;16.42;;
23718;SDS011;43322;52.230;5.702;2023-01-20T13:54:45;27.48;;;16.98;;
23718;SDS011;43322;52.230;5.702;2023-01-20T13:57:31;28.95;;;17.20;;
23718;SDS011;43322;52.230;5.702;2023-01-20T14:00:16;27.67;;;16.10;;
23718;SDS011;43322;52.230;5.702;2023-01-20T14:02:45;26.52;;;16.63;;
23718;SDS011;43322;52.230;5.702;2023-01-20T14:05:23;23.65;;;16.27;;
23718;SDS011;43322;52.230;5.702;2023-01-20T14:07:51;26.45;;;15.95;;
23718;SDS011;43322;52.230;5.702;2023-01-20T14:10:19;23.20;;;15.85;;
23718;SDS011;43322;52.230;5.702;2023-01-20T14:12:46;23.92;;;15.80;;
23718;SDS011;43322;52.230;5.702;2023-01-20T14:15:28;25.77;;;16.85;;
23718;SDS011;43322;52.230;5.702;2023-01-20T14:17:57;24.20;;;16.23;;
23718;SDS011;43322;52.230;5.702;2023-01-20T14:20:26;24.00;;;15.00;;
23718;SDS011;43322;52.230;5.702;2023-01-20T14:22:53;22.25;;;14.25;;
23718;SDS011;43322;52.230;5.702;2023-01-20T14:25:22;22.67;;;15.70;;
23718;SDS011;43322;52.230;5.702;2023-01-20T14:27:49;21.90;;;15.07;;
23718;SDS011;43322;52.230;5.702;2023-01-20T14:30:19;23.02;;;14.25;;
23718;SDS011;43322;52.230;5.702;2023-01-20T14:32:48;19.67;;;14.07;;
23718;SDS011;43322;52.230;5.702;2023-01-20T14:35:16;20.33;;;14.45;;
23718;SDS011;43322;52.230;5.702;2023-01-20T14:37:51;23.08;;;15.38;;
23718;SDS011;43322;52.230;5.702;2023-01-20T14:40:20;22.25;;;15.55;;
23718;SDS011;43322;52.230;5.702;2023-01-20T14:42:53;22.80;;;15.65;;
23718;SDS011;43322;52.230;5.702;2023-01-20T14:45:22;21.13;;;14.68;;
23718;SDS011;43322;52.230;5.702;2023-01-20T14:47:52;24.27;;;15.55;;
23718;SDS011;43322;52.230;5.702;2023-01-20T14:50:19;23.88;;;14.80;;
23718;SDS011;43322;52.230;5.702;2023-01-20T14:52:46;20.95;;;14.65;;
23718;SDS011;43322;52.230;5.702;2023-01-20T14:55:26;24.73;;;16.92;;
23718;SDS011;43322;52.230;5.702;2023-01-20T14:57:55;23.75;;;15.85;;
23718;SDS011;43322;52.230;5.702;2023-01-20T15:00:22;22.52;;;15.27;;